BFIBOEING FIELD/KING COUNTY INTL
METARs for nearby airports:
N 0 21' KBFI 270853Z 36003KT 10SM CLR 13/07 A3024
SE 4 32' KRNT 270853Z 34006KT 8SM CLR 13/08 A3024
S 4 432' KSEA 270853Z 28004KT 10SM CLR 11/08 A3024
W 18 443' KPWT 270856Z 00000KT 10SM CLR 07/06 A3024
SW 19 294' KTIW 270853Z 28003KT 10SM CLR 11/07 A3025
N 22 607' KPAE 270853Z 34004KT 10SM CLR 10/07 A3025
S 24 322' KTCM 270858Z 00000KT 10SM CLR 12/10 A3025
S 25 537' KPLU 270915Z 00000KT 10SM FEW026 OVC040 09/09 A3025
S 29 300' KGRF 270858Z 15003KT 10SM CLR 10/09 A3024
N 38 141' KAWO 270856Z 01003KT 10SM CLR 07/06 A3026
SW 38 272' KSHN 270853Z 25006KT 10SM CLR 10/07 A3022
SW 41 207' KOLM 270854Z 00000KT 10SM CLR 08/06 A3025
N 51 47' KNUW 270856Z 24009KT 10SM SCT065 BKN180 BKN250 12/08 A3028
N 56 145' KBVS 270935Z 00000KT 10SM FEW070 08/06 A3026
NW 57 13' KNOW 270915Z 26008KT 10SM CLR 11/07 A3025
SW 58 177' KCLS 270935Z 00000KT 10SM CLR 08/08 A3026
NW 59 291' KCLM 270853Z 24005KT 10SM CLR 08/07 A3025
NW 66 112' KFHR 270853Z VRB03KT 10SM SCT065 11/06 A3023
SW 74 17' KHQM 270853Z 29004KT 9SM CLR 12/10 A3026
N 74 34' KORS 270935Z 18006KT 10SM OVC070 12/07 A3021
N 76 171' KBLI 270853Z 00000KT 10SM CLR 09/06 A3022
E 78 1763' KELN 270853Z 32022G30KT 10SM CLR 13/04 A3008
NW 80 64' CYYJ 270900Z 30008KT 30SM BKN160 13/07 A3021
E 85 1248' KEAT 270855Z 31012KT 10SM CLR 14/03 A3007
S 88 20' KKLS 270856Z 00000KT 10SM CLR 09/08 A3026
SE 92 1098' KYKM 270853Z 32011G18KT 10SM CLR 16/03 A3008
W 94 193' KUIL 270853Z 00000KT 10SM FEW085 06/05 A3027
TAFs for nearby airports:
N 0 21' KBFI TAF KBFI 270520Z 2706/2806 VRB03KT P6SM SCT060 BKN200
  FM271000 16003KT P6SM SCT024 BKN035
  FM271800 25004KT P6SM SCT035
  FM272200 29005KT P6SM SCT250
  FM280100 30005KT P6SM SCT250
S 4 432' KSEA KSEA 270900Z 2709/2812 28004KT P6SM FEW050 SCT200
  FM271800 24005KT P6SM SCT030
  FM272200 28005KT P6SM SCT250
  FM280100 34006KT P6SM SCT250
  FM280900 23005KT P6SM BKN015 OVC030
W 18 443' KPWT TAF KPWT 270520Z 2706/2806 00000KT P6SM BKN045
  FM271000 16003KT P6SM SCT018 BKN030
  FM271700 18004KT P6SM SCT025
  FM271900 19004KT P6SM SCT035
  FM272100 19004KT P6SM SCT250
  FM280300 05005KT P6SM SCT250
N 22 607' KPAE TAF KPAE 270520Z 2706/2806 34007KT P6SM SCT060 BKN250
  FM270900 03005KT P6SM SCT025 BKN030
  FM271900 28005KT P6SM SCT035
  FM272100 31006KT P6SM SCT250
  FM280400 01005KT P6SM SCT250
S 24 322' KTCM TAF KTCM 2705/2811 VRB06KT 9999 BKN020 BKN050 QNH3014INS
  BECMG 2717/2718 25009KT 9999 SCT030 BKN050 QNH3020INS
  BECMG 2802/2803 VRB06KT 9999 BKN050 QNH3017INS TX21/2622Z TN10/2712Z
S 29 300' KGRF TAF KGRF 270503Z 2705/2811 VRB06KT 9999 BKN020 BKN050 QNH3014INS
  BECMG 2717/2718 25009KT 9999 SCT030 BKN050 QNH3020INS
  BECMG 2802/2803 VRB06KT 9999 BKN050 QNH3017INS TX21/2722Z TN10/2712Z
SW 41 207' KOLM TAF KOLM 270520Z 2706/2806 00000KT P6SM SCT250
  FM271400 21003KT P6SM SCT015
  FM271900 31005KT P6SM SCT250
  FM280300 27006KT P6SM SCT250
N 51 47' KNUW TAF KNUW 2707/2807 24012KT 9999 SCT060 BKN160 BKN250 QNH3018INS
  TEMPO 2707/2712 26015G20KT
  FM271200 23007KT 9999 FEW025 SCT070 BKN250 QNH3021INS
  FM280300 26012KT 9999 SCT020 BKN050 QNH3010INS T11/2712Z T18/2722Z FS30058
NW 59 291' KCLM TAF KCLM 270520Z 2706/2806 29005KT P6SM BKN250
  FM271600 33005KT P6SM SCT035 SCT250
  FM272300 30009KT P6SM SCT250
  FM280200 29012G18KT P6SM SCT250
SW 74 17' KHQM TAF KHQM 270520Z 2706/2806 27006KT P6SM SCT250
  FM271100 VRB04KT P6SM SCT012
  TEMPO 2714/2717 BKN010
  FM271900 25011KT P6SM SCT250
  FM280100 25012KT P6SM OVC015
  FM280400 26008KT P6SM OVC009
N 76 171' KBLI TAF KBLI 270520Z 2706/2806 17007KT P6SM FEW120 BKN250
  FM271800 19008KT P6SM SCT250
  FM272300 18008G15KT P6SM SCT250
  FM280400 17009KT P6SM SCT250
E 85 1248' KEAT TAF KEAT 270520Z 2706/2806 30018G26KT P6SM SCT120 BKN250
  FM271000 31013KT P6SM FEW250
  FM271800 30008KT P6SM FEW250
  FM280300 31010KT P6SM FEW250
SE 92 1098' KYKM KYKM 270624Z 2706/2806 30014G24KT P6SM SCT250
  FM270900 32010G18KT P6SM SKC
  FM271200 30005KT P6SM SKC
  FM271900 VRB05KT P6SM SKC
  FM280200 32008KT P6SM SKC
Area forecast:
000
FAUS46 KKCI 101945
FA6W  
SFOC FA 101945
SYNOPSIS AND VFR CLDS/WX
SYNOPSIS VALID UNTIL 111400
CLDS/WX VALID UNTIL 110800...OTLK VALID 110800-111400
WA OR CA AND CSTL WTRS
.
SEE AIRMET SIERRA FOR IFR CONDS AND MTN OBSCN.
TS IMPLY SEV OR GTR TURB SEV ICE LLWS AND IFR CONDS.
NON MSL HGTS DENOTED BY AGL OR CIG.
.
SYNOPSIS...UPR LVL TROF WAS LOCATED NR 130W. MOIST SWLY FLOW
EXTDS FROM PAC NW EWD INTO NRN ROCKIES. HIGH PRES RIDGE WAS OVR
MUCH OF THE REST OF THE AREA. BY 14Z...UPR LVL TROF WILL EXTD
FROM WA-OR SWD INTO CA.  ..STREIB..
.
WA CASCDS WWD
CSTL SXNS
CSTLN-INLAND...SCT-BKN025 BKN035-050 TOPS 120-140. ISOL -SHRA.
   OTLK...MVFR CIGS SHRA BR.
PUGET SOUND-INTR VLY...SCT-BKN020 BKN-OVC035-050 TOPS 160 BKN CI.
   WDLY SCT -SHRA. OTLK...MVFR CIGS SHRA.
CASCDS...BKN-OVC050-070 TOPS FL180. BKN CI ABV. WDLY SCT -SHRA.
   OTLK...MVFR CIGS SHRA.
.
WA E OF CASCDS
CNTRL WA...SCT140 OVC CI. BECMG 2302 SCT080 BKN120 LYRD FL240.
   OTLK...VFR.
ERN WA...SCT-BKN140-160 LYRD FL240. BECMG 0508 BKN080 OVC120
   LYRD FL240 ISOL -SHRA DVLPG. OTLK...VFR.
.
OR CASCDS WWD
CSTL SXNS
CSTLN-INLAND...SCT-BKN020 BKN-OVC035-050 TOPS FL180. WDLY SCT
   -SHRA. OTLK...MVFR CIGS SHRA.
WILLAMETTE VLY/SWRN INTR...SCT-BKN020 BKN-OVC035-050 TOPS FL180.
   WDLY SCT -SHRA. OTLK...MVFR CIGS SHRA.
CASCDS...SCT-BKN060 BKN-OVC080-100 TOPS FL180 ISOL -SHRA.
   OTLK...MVFR CIGS SHRA.
.
OR E OF CASCDS
CNTRL...SCT100-120 BKN150 LYRD FL240. OTLK...VFR.
ERN...SCT130-150 BKN CI. BECMG 0205 OVC120-140 LYRD FL240.
   OTLK...VFR.
.
NRN CA...STS-SAC-TVL LN NWD
CSTL SXNS...
   FOT NWD...SCT025 BKN CI ABV. BECMG 0205 SCT020 OVC050 TOPS
      160. ISOL -SHRA. OTLK...IFR CIGS.
   S OF FOT...SCT-BKN010 TOPS 030-040. OTLK...IFR CIGS.
REST OF AREA...SKC OCNL SCT CI. OCNL VYS 3-5SM FU HZ.
   OTLK...VFR.
SAC VLY...
   NRN AND CNTRL SXNS...SKC. OTLK...VFR.
   SRN SXNS...SKC. OCNL VIS 3-5SM FU HZ. OTLK...MVFR FU HZ.
SHASTA-SISKIYOUS-NERN CA...
NRN SIERRAS...SKC OCNL SCT CI. WINDS SLY G25KT. OTLK...VFR WIND.
.
CNTRL CA
CSTL SXNS...
   CSTLN...SKC OCNL SCT010. BECMG 0508 OCNL CIGS BKN-SCT010 TOPS
      020-030. OTLK...IFR CIGS.
   INLAND...SKC. OTLK...VFR BECMG 1114 IFR CIGS BR.
SAN JOAQUIN VLY...SKC. OTLK...VFR.
SRN SIERRAS..SKC. OTLK...VFR.
.
SRN CA..VBG-NID-60NNW BIH LN SWD
CSTL SXNS...
   CSTLN...
      EXTRM SRN SXNS...SKC. BECMG 0205 SCT010. BECMG 0508 CIGS
         BKN-OVC010 TOPS 030. OTLK...IFR CIGS.
      REST OF AREA...SKC. OTLK...VFR BECMG 0811 IFR CIGS BR.
   INLAND...SKC OCNL FEW CI. OTLK...VFR.
INTR MTNS-MOJAVE-SRN DESERTS...SKC OCNL FEW CI. OTLK...VFR.
.
CSTL WTRS
WA...SCT-BKN035-050 TOPS 100-120. ISOL -SHRA. OTLK...VFR.
OR...
NWRN HLF...SCT-BKN035-050 TOPS 100-120. ISOL -SHRA. OTLK...VFR.
SERN HLF...SCT-BKN025 BKN035-050 TOPS FL180 BKN CI ABV. WDLY SCT
   -SHRA. OTLK...MVFR CIGS SHRA.
CA...
NRN CA...
   FOT NWD...SCT025 BKN CI ABV. BECMG 0205 SCT020 OVC050 TOPS
      160. ISOL -SHRA. OTLK...IFR CIGS.
   S OF FOT...SCT-BKN010 TOPS 030-040. OTLK...IFR CIGS.
CNTRL CA...SCT-BKN010 TOPS 030-040. OTLK...IFR CIGS.
SRN CA...
   OUTER CSTL WTRS...CIGS BKN010-020 TOPS 030-050.
      OTLK...IFR CIGS.
   ADJ CSTL WTRS...SKC. OCNL AGL SCT010. OTLK...VFR BECMG 0811
      IFR CIGS BR.
.
THE AREA FORECAST WILL TERMINATE AT 2359Z ON 10 OCTOBER 2017. IN
PLACE OF THE AREA FORECAST...PLEASE SEE THE GRAPHICAL FORECAST AT
WWW.AVIATIONWEATHER.GOV/GFA. GRAPHICAL AND TEXT AIRMETS WILL
CONTINUE AS REGULARLY SCHEDULED.
....

Shortcut to this page: http://wxbay.com.

Data may contain errors.